Hg 306 Tobis — OUPS — position and weather

sailwx.info

Track history (hours):
 
Tides and Currents Weather Stations Pressure Air Temp Water Temp Dewpoint Dewpoint Depression Visibility Wind Speed Wind Dir Waves Ship Positions

Hg 306 Tobis

Last reported at 2017-Oct-17 14:32 UTC. Time now 2017-Oct-19 07:27 UTC.
Position N 58°53' E 004°46'.

Length 40 m; draft 6.4 m.

Type: Fishing. MMSI: 219013001.

Date/timePositionNaut miles runAvg speedWind from/ knotsBaromVisibWave heightAir tempDewpointWater temp
2017-Oct-17 14:32N 58°53' E 004°46'0 7.2
2017-Oct-17 14:28N 58°52' E 004°47'3 7.2
2017-Oct-17 14:00N 58°50' E 004°51'4 7.6
2017-Oct-17 13:30N 58°47' E 004°56'4 8.0
2017-Oct-17 13:00N 58°44' E 005°00'4 8.1
2017-Oct-17 12:30N 58°40' E 005°05'4 8.8
2017-Oct-17 12:00N 58°37' E 005°09'510.6
2017-Oct-17 11:30N 58°32' E 005°16'510.2
2017-Oct-17 11:00N 58°28' E 005°21'510.5
2017-Oct-17 10:30N 58°24' E 005°28'510.4
2017-Oct-17 09:59N 58°20' E 005°34'510.4
2017-Oct-17 09:30N 58°16' E 005°40'510.5
2017-Oct-17 09:00N 58°12' E 005°47'510.7
2017-Oct-17 08:30N 58°09' E 005°55'510.6
2017-Oct-17 08:00N 58°06' E 006°04'510.1
2017-Oct-17 07:30N 58°03' E 006°11'611.1
2017-Oct-17 07:00N 58°00' E 006°20'611.2
2017-Oct-17 06:30N 57°57' E 006°28'611.1
2017-Oct-17 06:00N 57°54' E 006°37'510.7
2017-Oct-17 05:30N 57°50' E 006°45'510.5
2017-Oct-17 05:00N 57°47' E 006°53'510.6
2017-Oct-17 04:30N 57°44' E 007°01'  
2017-Oct-09 13:04N 58°56' E 004°50'1 9.8
2017-Oct-09 12:56N 58°55' E 004°52'4 9.9
2017-Oct-09 12:30N 58°52' E 004°57'510.0
2017-Oct-09 12:00N 58°48' E 005°02'510.1
2017-Oct-09 11:30N 58°44' E 005°08'510.4
2017-Oct-09 11:00N 58°40' E 005°14'611.9
2017-Oct-09 10:30N 58°35' E 005°22'612.8
2017-Oct-09 10:00N 58°30' E 005°29'612.5
2017-Oct-09 09:30N 58°25' E 005°36'612.2
2017-Oct-09 09:00N 58°20' E 005°43'611.9
2017-Oct-09 08:30N 58°16' E 005°50'611.9
2017-Oct-09 08:00N 58°12' E 005°59'611.9
2017-Oct-09 07:30N 58°08' E 006°08'611.9
2017-Oct-09 07:00N 58°05' E 006°17'612.3
2017-Oct-09 06:30N 58°01' E 006°26'612.3
2017-Oct-09 06:00N 57°57' E 006°35'612.0
2017-Oct-09 05:30N 57°54' E 006°45'611.6
2017-Oct-09 05:00N 57°52' E 006°55'612.0
2017-Oct-09 04:29N 57°51' E 007°06'612.2
2017-Oct-09 03:59N 57°50' E 007°18'612.4
2017-Oct-09 03:30N 57°49' E 007°29'612.2
2017-Oct-09 03:00N 57°48' E 007°40'611.4
2017-Oct-09 02:30N 57°47' E 007°51'511.0
2017-Oct-09 02:00N 57°46' E 008°01'510.0
2017-Oct-09 01:30N 57°45' E 008°10'1410.2
2017-Oct-09 00:08N 57°43' E 008°36'710.1
2017-Oct-08 23:24N 57°42' E 008°50'4 9.8
2017-Oct-08 23:00N 57°41' E 008°57'5 9.9
2017-Oct-08 22:29N 57°41' E 009°06'510.1
2017-Oct-08 21:59N 57°40' E 009°16'510.1
2017-Oct-08 21:30N 57°39' E 009°24'510.1
2017-Oct-08 21:00N 57°38' E 009°34'5 9.9
2017-Oct-08 20:29N 57°37' E 009°43'5 9.9
2017-Oct-08 19:59N 57°37' E 009°52'4 0.2
2017-Oct-08 04:26N 57°36' E 009°59'0 0.0
2017-Oct-08 03:59N 57°36' E 009°59'0 0.0
2017-Oct-08 03:29N 57°36' E 009°59'0 0.0
2017-Oct-08 02:59N 57°36' E 009°59'0 0.0
2017-Oct-08 02:30N 57°36' E 009°59'0 0.0
2017-Oct-08 01:59N 57°36' E 009°59'  
Track history (hours):
 
Tides and Currents Weather Stations Pressure Air Temp Water Temp Dewpoint Dewpoint Depression Visibility Wind Speed Wind Dir Waves Ship Positions

Hg 306 Tobis

Last reported at 2017-Oct-17 14:32 UTC. Time now 2017-Oct-19 07:27 UTC.
Position N 58°53' E 004°46'.

Length 40 m; draft 6.4 m.

Type: Fishing. MMSI: 219013001.

Date/timePositionNaut miles runAvg speedWind from/ knotsBaromVisibWave heightAir tempDewpointWater temp
2017-Oct-17 14:32N 58°53' E 004°46'0 7.2
2017-Oct-17 14:28N 58°52' E 004°47'3 7.2
2017-Oct-17 14:00N 58°50' E 004°51'4 7.6
2017-Oct-17 13:30N 58°47' E 004°56'4 8.0
2017-Oct-17 13:00N 58°44' E 005°00'4 8.1
2017-Oct-17 12:30N 58°40' E 005°05'4 8.8
2017-Oct-17 12:00N 58°37' E 005°09'510.6
2017-Oct-17 11:30N 58°32' E 005°16'510.2
2017-Oct-17 11:00N 58°28' E 005°21'510.5
2017-Oct-17 10:30N 58°24' E 005°28'510.4
2017-Oct-17 09:59N 58°20' E 005°34'510.4
2017-Oct-17 09:30N 58°16' E 005°40'510.5
2017-Oct-17 09:00N 58°12' E 005°47'510.7
2017-Oct-17 08:30N 58°09' E 005°55'510.6
2017-Oct-17 08:00N 58°06' E 006°04'510.1
2017-Oct-17 07:30N 58°03' E 006°11'611.1
2017-Oct-17 07:00N 58°00' E 006°20'611.2
2017-Oct-17 06:30N 57°57' E 006°28'611.1
2017-Oct-17 06:00N 57°54' E 006°37'510.7
2017-Oct-17 05:30N 57°50' E 006°45'510.5
2017-Oct-17 05:00N 57°47' E 006°53'510.6
2017-Oct-17 04:30N 57°44' E 007°01'  
2017-Oct-09 13:04N 58°56' E 004°50'1 9.8
2017-Oct-09 12:56N 58°55' E 004°52'4 9.9
2017-Oct-09 12:30N 58°52' E 004°57'510.0
2017-Oct-09 12:00N 58°48' E 005°02'510.1
2017-Oct-09 11:30N 58°44' E 005°08'510.4
2017-Oct-09 11:00N 58°40' E 005°14'611.9
2017-Oct-09 10:30N 58°35' E 005°22'612.8
2017-Oct-09 10:00N 58°30' E 005°29'612.5
2017-Oct-09 09:30N 58°25' E 005°36'612.2
2017-Oct-09 09:00N 58°20' E 005°43'611.9
2017-Oct-09 08:30N 58°16' E 005°50'611.9
2017-Oct-09 08:00N 58°12' E 005°59'611.9
2017-Oct-09 07:30N 58°08' E 006°08'611.9
2017-Oct-09 07:00N 58°05' E 006°17'612.3
2017-Oct-09 06:30N 58°01' E 006°26'612.3
2017-Oct-09 06:00N 57°57' E 006°35'612.0
2017-Oct-09 05:30N 57°54' E 006°45'611.6
2017-Oct-09 05:00N 57°52' E 006°55'612.0
2017-Oct-09 04:29N 57°51' E 007°06'612.2
2017-Oct-09 03:59N 57°50' E 007°18'612.4
2017-Oct-09 03:30N 57°49' E 007°29'612.2
2017-Oct-09 03:00N 57°48' E 007°40'611.4
2017-Oct-09 02:30N 57°47' E 007°51'511.0
2017-Oct-09 02:00N 57°46' E 008°01'510.0
2017-Oct-09 01:30N 57°45' E 008°10'1410.2
2017-Oct-09 00:08N 57°43' E 008°36'710.1
2017-Oct-08 23:24N 57°42' E 008°50'4 9.8
2017-Oct-08 23:00N 57°41' E 008°57'5 9.9
2017-Oct-08 22:29N 57°41' E 009°06'510.1
2017-Oct-08 21:59N 57°40' E 009°16'510.1
2017-Oct-08 21:30N 57°39' E 009°24'510.1
2017-Oct-08 21:00N 57°38' E 009°34'5 9.9
2017-Oct-08 20:29N 57°37' E 009°43'5 9.9
2017-Oct-08 19:59N 57°37' E 009°52'4 0.2
2017-Oct-08 04:26N 57°36' E 009°59'0 0.0
2017-Oct-08 03:59N 57°36' E 009°59'0 0.0
2017-Oct-08 03:29N 57°36' E 009°59'0 0.0
2017-Oct-08 02:59N 57°36' E 009°59'0 0.0
2017-Oct-08 02:30N 57°36' E 009°59'0 0.0
2017-Oct-08 01:59N 57°36' E 009°59'  

Dump ship's entire track history